sensor_id;sensor_type;location;lat;lon;timestamp;P1;durP1;ratioP1;P2;durP2;ratioP2
2824;SDS011;1420;51.324;12.344;2023-08-06T00:01:21;10.34;;;4.26;;
2824;SDS011;1420;51.324;12.344;2023-08-06T00:03:48;10.90;;;4.42;;
2824;SDS011;1420;51.324;12.344;2023-08-06T00:06:15;12.48;;;4.00;;
2824;SDS011;1420;51.324;12.344;2023-08-06T00:08:42;10.84;;;4.04;;
2824;SDS011;1420;51.324;12.344;2023-08-06T00:11:10;11.16;;;3.90;;
2824;SDS011;1420;51.324;12.344;2023-08-06T00:13:38;11.50;;;3.86;;
2824;SDS011;1420;51.324;12.344;2023-08-06T00:16:08;10.12;;;3.88;;
2824;SDS011;1420;51.324;12.344;2023-08-06T00:18:35;10.06;;;4.24;;
2824;SDS011;1420;51.324;12.344;2023-08-06T00:21:02;11.14;;;4.18;;
2824;SDS011;1420;51.324;12.344;2023-08-06T00:23:30;11.80;;;4.30;;
2824;SDS011;1420;51.324;12.344;2023-08-06T00:25:58;11.76;;;4.30;;
2824;SDS011;1420;51.324;12.344;2023-08-06T00:28:26;10.28;;;3.90;;
2824;SDS011;1420;51.324;12.344;2023-08-06T00:30:54;10.02;;;4.60;;
2824;SDS011;1420;51.324;12.344;2023-08-06T00:33:23;11.58;;;4.78;;
2824;SDS011;1420;51.324;12.344;2023-08-06T00:35:50;10.88;;;4.32;;
2824;SDS011;1420;51.324;12.344;2023-08-06T00:38:17;9.64;;;4.00;;
2824;SDS011;1420;51.324;12.344;2023-08-06T00:40:44;9.30;;;3.38;;
2824;SDS011;1420;51.324;12.344;2023-08-06T00:43:11;9.74;;;4.04;;
2824;SDS011;1420;51.324;12.344;2023-08-06T00:45:39;9.80;;;4.22;;
2824;SDS011;1420;51.324;12.344;2023-08-06T00:48:06;9.90;;;4.14;;
2824;SDS011;1420;51.324;12.344;2023-08-06T00:50:34;10.20;;;4.16;;
2824;SDS011;1420;51.324;12.344;2023-08-06T00:53:01;10.30;;;4.38;;
2824;SDS011;1420;51.324;12.344;2023-08-06T00:55:28;11.82;;;3.74;;
2824;SDS011;1420;51.324;12.344;2023-08-06T00:57:55;11.38;;;4.70;;
2824;SDS011;1420;51.324;12.344;2023-08-06T01:00:24;10.78;;;4.58;;
2824;SDS011;1420;51.324;12.344;2023-08-06T01:02:53;9.14;;;3.78;;
2824;SDS011;1420;51.324;12.344;2023-08-06T01:05:20;11.26;;;4.80;;
2824;SDS011;1420;51.324;12.344;2023-08-06T01:10:30;10.90;;;4.34;;
2824;SDS011;1420;51.324;12.344;2023-08-06T01:15:29;14.08;;;4.96;;
2824;SDS011;1420;51.324;12.344;2023-08-06T01:17:55;11.66;;;5.66;;
2824;SDS011;1420;51.324;12.344;2023-08-06T01:20:26;10.64;;;4.22;;
2824;SDS011;1420;51.324;12.344;2023-08-06T01:22:49;9.44;;;4.20;;
2824;SDS011;1420;51.324;12.344;2023-08-06T01:25:16;10.98;;;4.20;;
2824;SDS011;1420;51.324;12.344;2023-08-06T01:27:44;10.82;;;4.70;;
2824;SDS011;1420;51.324;12.344;2023-08-06T01:30:17;9.90;;;3.70;;
2824;SDS011;1420;51.324;12.344;2023-08-06T01:32:48;10.44;;;4.58;;
2824;SDS011;1420;51.324;12.344;2023-08-06T01:35:15;9.54;;;4.02;;
2824;SDS011;1420;51.324;12.344;2023-08-06T01:37:41;11.18;;;4.84;;
2824;SDS011;1420;51.324;12.344;2023-08-06T01:40:09;9.28;;;4.20;;
2824;SDS011;1420;51.324;12.344;2023-08-06T01:42:37;9.10;;;4.38;;
2824;SDS011;1420;51.324;12.344;2023-08-06T01:45:06;8.82;;;4.04;;
2824;SDS011;1420;51.324;12.344;2023-08-06T01:47:33;9.42;;;3.90;;
2824;SDS011;1420;51.324;12.344;2023-08-06T01:50:01;12.60;;;4.70;;
2824;SDS011;1420;51.324;12.344;2023-08-06T01:52:28;10.64;;;3.68;;
2824;SDS011;1420;51.324;12.344;2023-08-06T01:54:55;11.80;;;4.52;;
2824;SDS011;1420;51.324;12.344;2023-08-06T01:57:22;9.78;;;4.42;;
2824;SDS011;1420;51.324;12.344;2023-08-06T01:59:49;10.00;;;4.54;;
2824;SDS011;1420;51.324;12.344;2023-08-06T02:02:17;8.98;;;4.44;;
2824;SDS011;1420;51.324;12.344;2023-08-06T02:04:44;13.26;;;5.22;;
2824;SDS011;1420;51.324;12.344;2023-08-06T02:07:11;9.80;;;4.44;;
2824;SDS011;1420;51.324;12.344;2023-08-06T02:09:38;9.30;;;4.26;;
2824;SDS011;1420;51.324;12.344;2023-08-06T02:12:06;10.10;;;4.80;;
2824;SDS011;1420;51.324;12.344;2023-08-06T02:14:33;9.48;;;4.54;;
2824;SDS011;1420;51.324;12.344;2023-08-06T02:17:00;10.28;;;5.00;;
2824;SDS011;1420;51.324;12.344;2023-08-06T02:19:28;9.28;;;4.44;;
2824;SDS011;1420;51.324;12.344;2023-08-06T02:21:55;8.88;;;4.30;;
2824;SDS011;1420;51.324;12.344;2023-08-06T02:24:22;11.42;;;4.94;;
2824;SDS011;1420;51.324;12.344;2023-08-06T02:26:49;9.70;;;4.62;;
2824;SDS011;1420;51.324;12.344;2023-08-06T02:29:17;9.34;;;4.36;;
2824;SDS011;1420;51.324;12.344;2023-08-06T02:31:43;8.58;;;3.98;;
2824;SDS011;1420;51.324;12.344;2023-08-06T02:34:11;8.98;;;4.62;;
2824;SDS011;1420;51.324;12.344;2023-08-06T02:36:38;8.80;;;3.70;;
2824;SDS011;1420;51.324;12.344;2023-08-06T02:39:05;10.06;;;4.72;;
2824;SDS011;1420;51.324;12.344;2023-08-06T02:41:32;11.76;;;4.82;;
2824;SDS011;1420;51.324;12.344;2023-08-06T02:43:59;10.72;;;5.10;;
2824;SDS011;1420;51.324;12.344;2023-08-06T02:46:27;11.14;;;4.72;;
2824;SDS011;1420;51.324;12.344;2023-08-06T02:48:54;10.40;;;4.22;;
2824;SDS011;1420;51.324;12.344;2023-08-06T02:51:21;9.02;;;3.94;;
2824;SDS011;1420;51.324;12.344;2023-08-06T02:53:48;10.00;;;5.00;;
2824;SDS011;1420;51.324;12.344;2023-08-06T02:56:15;10.34;;;4.44;;
2824;SDS011;1420;51.324;12.344;2023-08-06T02:58:43;11.48;;;4.96;;
2824;SDS011;1420;51.324;12.344;2023-08-06T03:01:10;10.74;;;4.62;;
2824;SDS011;1420;51.324;12.344;2023-08-06T03:03:37;9.32;;;4.38;;
2824;SDS011;1420;51.324;12.344;2023-08-06T03:06:05;8.00;;;3.80;;
2824;SDS011;1420;51.324;12.344;2023-08-06T03:08:33;9.58;;;4.72;;
2824;SDS011;1420;51.324;12.344;2023-08-06T03:11:01;8.66;;;4.28;;
2824;SDS011;1420;51.324;12.344;2023-08-06T03:13:29;10.78;;;4.96;;
2824;SDS011;1420;51.324;12.344;2023-08-06T03:15:58;9.26;;;4.42;;
2824;SDS011;1420;51.324;12.344;2023-08-06T03:18:24;13.06;;;5.70;;
2824;SDS011;1420;51.324;12.344;2023-08-06T03:20:52;12.34;;;5.04;;
2824;SDS011;1420;51.324;12.344;2023-08-06T03:23:19;9.82;;;4.04;;
2824;SDS011;1420;51.324;12.344;2023-08-06T03:25:47;9.58;;;5.14;;
2824;SDS011;1420;51.324;12.344;2023-08-06T03:28:15;9.24;;;4.70;;
2824;SDS011;1420;51.324;12.344;2023-08-06T03:30:43;11.62;;;5.30;;
2824;SDS011;1420;51.324;12.344;2023-08-06T03:33:11;10.70;;;4.84;;
2824;SDS011;1420;51.324;12.344;2023-08-06T03:35:39;12.58;;;5.66;;
2824;SDS011;1420;51.324;12.344;2023-08-06T03:38:06;9.78;;;5.00;;
2824;SDS011;1420;51.324;12.344;2023-08-06T03:40:34;9.42;;;4.66;;
2824;SDS011;1420;51.324;12.344;2023-08-06T03:43:01;9.74;;;4.56;;
2824;SDS011;1420;51.324;12.344;2023-08-06T03:45:29;11.16;;;4.44;;
2824;SDS011;1420;51.324;12.344;2023-08-06T03:47:57;9.00;;;4.96;;
2824;SDS011;1420;51.324;12.344;2023-08-06T03:50:25;8.86;;;4.68;;
2824;SDS011;1420;51.324;12.344;2023-08-06T03:52:53;10.10;;;4.92;;
2824;SDS011;1420;51.324;12.344;2023-08-06T03:55:21;11.46;;;5.42;;
2824;SDS011;1420;51.324;12.344;2023-08-06T03:57:49;13.70;;;5.66;;
2824;SDS011;1420;51.324;12.344;2023-08-06T04:00:17;8.72;;;4.88;;
2824;SDS011;1420;51.324;12.344;2023-08-06T04:02:44;12.80;;;4.92;;
2824;SDS011;1420;51.324;12.344;2023-08-06T04:05:12;9.68;;;5.26;;
2824;SDS011;1420;51.324;12.344;2023-08-06T04:07:39;10.34;;;5.06;;
2824;SDS011;1420;51.324;12.344;2023-08-06T04:10:06;10.54;;;5.66;;
2824;SDS011;1420;51.324;12.344;2023-08-06T04:12:33;13.78;;;5.60;;
2824;SDS011;1420;51.324;12.344;2023-08-06T04:15:00;14.74;;;5.78;;
2824;SDS011;1420;51.324;12.344;2023-08-06T04:17:28;10.94;;;4.78;;
2824;SDS011;1420;51.324;12.344;2023-08-06T04:19:56;11.32;;;4.98;;
2824;SDS011;1420;51.324;12.344;2023-08-06T04:22:24;12.08;;;5.18;;
2824;SDS011;1420;51.324;12.344;2023-08-06T04:24:51;10.64;;;5.10;;
2824;SDS011;1420;51.324;12.344;2023-08-06T04:27:19;11.56;;;4.72;;
2824;SDS011;1420;51.324;12.344;2023-08-06T04:29:47;9.34;;;4.70;;
2824;SDS011;1420;51.324;12.344;2023-08-06T04:32:15;11.04;;;4.48;;
2824;SDS011;1420;51.324;12.344;2023-08-06T04:34:43;9.10;;;3.76;;
2824;SDS011;1420;51.324;12.344;2023-08-06T04:37:11;8.90;;;3.56;;
2824;SDS011;1420;51.324;12.344;2023-08-06T04:39:38;9.40;;;3.30;;
2824;SDS011;1420;51.324;12.344;2023-08-06T04:42:05;8.42;;;2.68;;
2824;SDS011;1420;51.324;12.344;2023-08-06T04:44:33;9.22;;;3.84;;
2824;SDS011;1420;51.324;12.344;2023-08-06T04:47:00;9.04;;;2.78;;
2824;SDS011;1420;51.324;12.344;2023-08-06T04:49:27;8.44;;;2.80;;
2824;SDS011;1420;51.324;12.344;2023-08-06T04:51:54;7.22;;;2.60;;
2824;SDS011;1420;51.324;12.344;2023-08-06T04:54:21;11.32;;;3.16;;
2824;SDS011;1420;51.324;12.344;2023-08-06T04:56:49;7.66;;;2.78;;
2824;SDS011;1420;51.324;12.344;2023-08-06T04:59:16;10.84;;;3.30;;
2824;SDS011;1420;51.324;12.344;2023-08-06T05:01:44;8.10;;;2.74;;
2824;SDS011;1420;51.324;12.344;2023-08-06T05:04:11;8.20;;;2.80;;
2824;SDS011;1420;51.324;12.344;2023-08-06T05:06:38;8.64;;;3.06;;
2824;SDS011;1420;51.324;12.344;2023-08-06T05:09:05;9.46;;;3.20;;
2824;SDS011;1420;51.324;12.344;2023-08-06T05:11:33;8.40;;;2.92;;
2824;SDS011;1420;51.324;12.344;2023-08-06T05:14:00;7.36;;;2.60;;
2824;SDS011;1420;51.324;12.344;2023-08-06T05:16:27;8.48;;;3.04;;
2824;SDS011;1420;51.324;12.344;2023-08-06T05:18:54;8.86;;;3.02;;
2824;SDS011;1420;51.324;12.344;2023-08-06T05:21:21;7.88;;;2.58;;
2824;SDS011;1420;51.324;12.344;2023-08-06T05:23:49;9.42;;;2.38;;
2824;SDS011;1420;51.324;12.344;2023-08-06T05:26:16;8.24;;;2.42;;
2824;SDS011;1420;51.324;12.344;2023-08-06T05:28:43;7.44;;;2.24;;
2824;SDS011;1420;51.324;12.344;2023-08-06T05:31:10;8.40;;;2.68;;
2824;SDS011;1420;51.324;12.344;2023-08-06T05:33:37;11.30;;;2.70;;
2824;SDS011;1420;51.324;12.344;2023-08-06T05:36:05;7.58;;;2.28;;
2824;SDS011;1420;51.324;12.344;2023-08-06T05:38:32;8.04;;;2.36;;
2824;SDS011;1420;51.324;12.344;2023-08-06T05:40:59;9.34;;;2.70;;
2824;SDS011;1420;51.324;12.344;2023-08-06T05:43:26;8.38;;;2.74;;
2824;SDS011;1420;51.324;12.344;2023-08-06T05:45:53;7.58;;;2.20;;
2824;SDS011;1420;51.324;12.344;2023-08-06T05:48:21;10.02;;;2.54;;
2824;SDS011;1420;51.324;12.344;2023-08-06T05:50:48;7.52;;;2.12;;
2824;SDS011;1420;51.324;12.344;2023-08-06T05:53:16;7.82;;;2.30;;
2824;SDS011;1420;51.324;12.344;2023-08-06T05:55:43;7.44;;;1.90;;
2824;SDS011;1420;51.324;12.344;2023-08-06T05:58:10;7.60;;;1.90;;
2824;SDS011;1420;51.324;12.344;2023-08-06T06:00:37;7.76;;;2.02;;
2824;SDS011;1420;51.324;12.344;2023-08-06T06:03:05;8.30;;;2.20;;
2824;SDS011;1420;51.324;12.344;2023-08-06T06:05:32;7.54;;;2.00;;
2824;SDS011;1420;51.324;12.344;2023-08-06T06:07:59;8.14;;;2.00;;
2824;SDS011;1420;51.324;12.344;2023-08-06T06:10:26;8.56;;;2.46;;
2824;SDS011;1420;51.324;12.344;2023-08-06T06:12:53;8.04;;;2.22;;
2824;SDS011;1420;51.324;12.344;2023-08-06T06:15:21;8.52;;;1.88;;
2824;SDS011;1420;51.324;12.344;2023-08-06T06:17:48;7.92;;;1.80;;
2824;SDS011;1420;51.324;12.344;2023-08-06T06:20:15;8.60;;;1.48;;
2824;SDS011;1420;51.324;12.344;2023-08-06T06:22:42;8.04;;;1.48;;
2824;SDS011;1420;51.324;12.344;2023-08-06T06:25:09;8.40;;;1.72;;
2824;SDS011;1420;51.324;12.344;2023-08-06T06:27:37;8.54;;;1.56;;
2824;SDS011;1420;51.324;12.344;2023-08-06T06:30:04;8.68;;;1.80;;
2824;SDS011;1420;51.324;12.344;2023-08-06T06:32:32;9.70;;;1.92;;
2824;SDS011;1420;51.324;12.344;2023-08-06T06:34:59;8.04;;;1.58;;
2824;SDS011;1420;51.324;12.344;2023-08-06T06:37:26;8.88;;;1.50;;
2824;SDS011;1420;51.324;12.344;2023-08-06T06:39:54;9.14;;;1.46;;
2824;SDS011;1420;51.324;12.344;2023-08-06T06:42:21;8.32;;;1.60;;
2824;SDS011;1420;51.324;12.344;2023-08-06T06:44:49;8.74;;;1.82;;
2824;SDS011;1420;51.324;12.344;2023-08-06T06:47:16;9.24;;;1.60;;
2824;SDS011;1420;51.324;12.344;2023-08-06T06:49:44;9.00;;;1.38;;
2824;SDS011;1420;51.324;12.344;2023-08-06T06:52:11;11.90;;;2.50;;
2824;SDS011;1420;51.324;12.344;2023-08-06T06:54:39;9.72;;;1.60;;
2824;SDS011;1420;51.324;12.344;2023-08-06T06:57:06;9.78;;;1.78;;
2824;SDS011;1420;51.324;12.344;2023-08-06T06:59:33;10.78;;;1.74;;
2824;SDS011;1420;51.324;12.344;2023-08-06T07:02:00;11.18;;;2.20;;
2824;SDS011;1420;51.324;12.344;2023-08-06T07:04:27;11.74;;;2.22;;
2824;SDS011;1420;51.324;12.344;2023-08-06T07:06:55;11.82;;;2.10;;
2824;SDS011;1420;51.324;12.344;2023-08-06T07:09:22;11.92;;;2.46;;
2824;SDS011;1420;51.324;12.344;2023-08-06T07:11:49;11.56;;;1.34;;
2824;SDS011;1420;51.324;12.344;2023-08-06T07:14:16;11.40;;;2.22;;
2824;SDS011;1420;51.324;12.344;2023-08-06T07:16:43;12.22;;;2.14;;
2824;SDS011;1420;51.324;12.344;2023-08-06T07:19:11;10.10;;;1.44;;
2824;SDS011;1420;51.324;12.344;2023-08-06T07:21:39;9.92;;;1.44;;
2824;SDS011;1420;51.324;12.344;2023-08-06T07:24:07;12.30;;;2.44;;
2824;SDS011;1420;51.324;12.344;2023-08-06T07:26:34;10.74;;;1.88;;
2824;SDS011;1420;51.324;12.344;2023-08-06T07:29:01;11.70;;;2.30;;
2824;SDS011;1420;51.324;12.344;2023-08-06T07:31:29;11.64;;;2.34;;
2824;SDS011;1420;51.324;12.344;2023-08-06T07:33:57;12.74;;;3.08;;
2824;SDS011;1420;51.324;12.344;2023-08-06T07:36:25;10.64;;;2.26;;
2824;SDS011;1420;51.324;12.344;2023-08-06T07:38:53;11.32;;;2.32;;
2824;SDS011;1420;51.324;12.344;2023-08-06T07:41:20;12.90;;;3.38;;
2824;SDS011;1420;51.324;12.344;2023-08-06T07:43:47;12.64;;;3.80;;
2824;SDS011;1420;51.324;12.344;2023-08-06T07:46:15;12.44;;;2.98;;
2824;SDS011;1420;51.324;12.344;2023-08-06T07:48:43;16.08;;;6.14;;
2824;SDS011;1420;51.324;12.344;2023-08-06T07:51:11;15.86;;;5.94;;
2824;SDS011;1420;51.324;12.344;2023-08-06T07:53:39;14.94;;;5.50;;
2824;SDS011;1420;51.324;12.344;2023-08-06T07:56:07;16.66;;;8.92;;
2824;SDS011;1420;51.324;12.344;2023-08-06T07:58:35;14.20;;;4.66;;
2824;SDS011;1420;51.324;12.344;2023-08-06T08:01:03;15.14;;;5.58;;
2824;SDS011;1420;51.324;12.344;2023-08-06T08:03:31;16.80;;;5.76;;
2824;SDS011;1420;51.324;12.344;2023-08-06T08:05:59;17.22;;;6.42;;
2824;SDS011;1420;51.324;12.344;2023-08-06T08:08:27;16.40;;;6.08;;
2824;SDS011;1420;51.324;12.344;2023-08-06T08:10:55;14.28;;;6.24;;
2824;SDS011;1420;51.324;12.344;2023-08-06T08:13:22;23.62;;;11.52;;
2824;SDS011;1420;51.324;12.344;2023-08-06T08:15:49;18.18;;;12.52;;
2824;SDS011;1420;51.324;12.344;2023-08-06T08:18:16;18.82;;;10.74;;
2824;SDS011;1420;51.324;12.344;2023-08-06T08:20:44;20.34;;;14.88;;
2824;SDS011;1420;51.324;12.344;2023-08-06T08:23:11;21.74;;;16.00;;
2824;SDS011;1420;51.324;12.344;2023-08-06T08:25:38;18.58;;;10.88;;
2824;SDS011;1420;51.324;12.344;2023-08-06T08:28:05;19.56;;;14.84;;
2824;SDS011;1420;51.324;12.344;2023-08-06T08:30:32;17.52;;;10.24;;
2824;SDS011;1420;51.324;12.344;2023-08-06T08:33:00;17.60;;;8.22;;
2824;SDS011;1420;51.324;12.344;2023-08-06T08:35:28;17.72;;;10.54;;
2824;SDS011;1420;51.324;12.344;2023-08-06T08:37:56;16.26;;;7.28;;
2824;SDS011;1420;51.324;12.344;2023-08-06T08:40:26;15.94;;;7.10;;
2824;SDS011;1420;51.324;12.344;2023-08-06T08:42:51;16.22;;;8.14;;
2824;SDS011;1420;51.324;12.344;2023-08-06T08:45:18;18.22;;;10.42;;
2824;SDS011;1420;51.324;12.344;2023-08-06T08:47:46;18.22;;;11.92;;
2824;SDS011;1420;51.324;12.344;2023-08-06T08:50:13;26.32;;;23.82;;
2824;SDS011;1420;51.324;12.344;2023-08-06T08:52:40;23.90;;;21.50;;
2824;SDS011;1420;51.324;12.344;2023-08-06T08:55:07;35.44;;;32.42;;
2824;SDS011;1420;51.324;12.344;2023-08-06T08:57:35;69.28;;;64.86;;
2824;SDS011;1420;51.324;12.344;2023-08-06T09:00:02;74.44;;;69.76;;
2824;SDS011;1420;51.324;12.344;2023-08-06T09:02:30;124.88;;;118.50;;
2824;SDS011;1420;51.324;12.344;2023-08-06T09:04:58;95.94;;;89.66;;
2824;SDS011;1420;51.324;12.344;2023-08-06T09:07:26;124.08;;;116.72;;
2824;SDS011;1420;51.324;12.344;2023-08-06T09:09:53;119.22;;;112.56;;
2824;SDS011;1420;51.324;12.344;2023-08-06T09:12:22;131.32;;;123.86;;
2824;SDS011;1420;51.324;12.344;2023-08-06T09:14:48;131.54;;;124.02;;
2824;SDS011;1420;51.324;12.344;2023-08-06T09:17:16;186.60;;;176.02;;
2824;SDS011;1420;51.324;12.344;2023-08-06T09:19:43;174.94;;;165.10;;
2824;SDS011;1420;51.324;12.344;2023-08-06T09:22:11;198.62;;;187.66;;
2824;SDS011;1420;51.324;12.344;2023-08-06T09:24:38;192.52;;;182.00;;
2824;SDS011;1420;51.324;12.344;2023-08-06T09:27:05;228.06;;;215.98;;
2824;SDS011;1420;51.324;12.344;2023-08-06T09:29:32;365.48;;;347.62;;
2824;SDS011;1420;51.324;12.344;2023-08-06T09:32:00;462.78;;;440.42;;
2824;SDS011;1420;51.324;12.344;2023-08-06T09:34:28;397.72;;;378.30;;
2824;SDS011;1420;51.324;12.344;2023-08-06T09:36:56;459.34;;;437.94;;
2824;SDS011;1420;51.324;12.344;2023-08-06T09:41:57;398.00;;;379.34;;
2824;SDS011;1420;51.324;12.344;2023-08-06T09:44:28;392.18;;;373.74;;
2824;SDS011;1420;51.324;12.344;2023-08-06T09:46:55;408.80;;;390.28;;
2824;SDS011;1420;51.324;12.344;2023-08-06T09:49:27;388.76;;;370.42;;
2824;SDS011;1420;51.324;12.344;2023-08-06T09:51:54;362.42;;;346.12;;
2824;SDS011;1420;51.324;12.344;2023-08-06T09:54:22;296.60;;;281.80;;
2824;SDS011;1420;51.324;12.344;2023-08-06T09:56:48;415.24;;;395.96;;
2824;SDS011;1420;51.324;12.344;2023-08-06T09:59:16;370.10;;;352.62;;
2824;SDS011;1420;51.324;12.344;2023-08-06T10:01:43;309.94;;;295.12;;
2824;SDS011;1420;51.324;12.344;2023-08-06T10:04:11;351.74;;;335.34;;
2824;SDS011;1420;51.324;12.344;2023-08-06T10:06:38;309.04;;;293.94;;
2824;SDS011;1420;51.324;12.344;2023-08-06T10:09:05;329.74;;;314.06;;
2824;SDS011;1420;51.324;12.344;2023-08-06T10:11:32;393.70;;;375.72;;
2824;SDS011;1420;51.324;12.344;2023-08-06T10:14:03;416.96;;;397.74;;
2824;SDS011;1420;51.324;12.344;2023-08-06T10:16:43;430.86;;;410.70;;
2824;SDS011;1420;51.324;12.344;2023-08-06T10:19:11;444.38;;;423.14;;
2824;SDS011;1420;51.324;12.344;2023-08-06T10:21:38;398.16;;;379.24;;
2824;SDS011;1420;51.324;12.344;2023-08-06T10:24:07;346.84;;;330.38;;
2824;SDS011;1420;51.324;12.344;2023-08-06T10:26:37;385.56;;;367.64;;
2824;SDS011;1420;51.324;12.344;2023-08-06T10:31:58;390.94;;;372.72;;
2824;SDS011;1420;51.324;12.344;2023-08-06T10:34:25;414.84;;;395.56;;
2824;SDS011;1420;51.324;12.344;2023-08-06T10:36:54;464.94;;;443.38;;
2824;SDS011;1420;51.324;12.344;2023-08-06T10:39:20;429.16;;;408.64;;
2824;SDS011;1420;51.324;12.344;2023-08-06T10:41:48;464.78;;;443.60;;
2824;SDS011;1420;51.324;12.344;2023-08-06T10:44:15;441.40;;;420.74;;
2824;SDS011;1420;51.324;12.344;2023-08-06T10:46:42;439.62;;;419.44;;
2824;SDS011;1420;51.324;12.344;2023-08-06T10:49:10;428.94;;;408.46;;
2824;SDS011;1420;51.324;12.344;2023-08-06T10:51:38;441.00;;;420.40;;
2824;SDS011;1420;51.324;12.344;2023-08-06T10:54:06;462.04;;;440.32;;
2824;SDS011;1420;51.324;12.344;2023-08-06T10:56:39;477.52;;;454.86;;
2824;SDS011;1420;51.324;12.344;2023-08-06T10:59:00;472.84;;;450.40;;
2824;SDS011;1420;51.324;12.344;2023-08-06T11:01:28;480.86;;;457.78;;
2824;SDS011;1420;51.324;12.344;2023-08-06T11:04:00;469.54;;;447.26;;
2824;SDS011;1420;51.324;12.344;2023-08-06T11:06:23;452.16;;;430.96;;
2824;SDS011;1420;51.324;12.344;2023-08-06T11:08:51;464.46;;;442.10;;
2824;SDS011;1420;51.324;12.344;2023-08-06T11:11:19;438.96;;;417.78;;
2824;SDS011;1420;51.324;12.344;2023-08-06T11:13:46;479.34;;;457.14;;
2824;SDS011;1420;51.324;12.344;2023-08-06T11:16:14;467.52;;;445.06;;
2824;SDS011;1420;51.324;12.344;2023-08-06T11:18:41;502.88;;;478.48;;
2824;SDS011;1420;51.324;12.344;2023-08-06T11:21:08;491.64;;;468.30;;
2824;SDS011;1420;51.324;12.344;2023-08-06T11:23:36;508.90;;;484.24;;
2824;SDS011;1420;51.324;12.344;2023-08-06T11:26:03;506.04;;;480.92;;
2824;SDS011;1420;51.324;12.344;2023-08-06T11:28:30;493.90;;;470.50;;
2824;SDS011;1420;51.324;12.344;2023-08-06T11:30:58;493.94;;;470.18;;
2824;SDS011;1420;51.324;12.344;2023-08-06T11:33:26;502.38;;;477.90;;
2824;SDS011;1420;51.324;12.344;2023-08-06T11:35:54;451.12;;;429.20;;
2824;SDS011;1420;51.324;12.344;2023-08-06T11:38:21;428.32;;;407.44;;
2824;SDS011;1420;51.324;12.344;2023-08-06T11:40:48;438.66;;;417.50;;
2824;SDS011;1420;51.324;12.344;2023-08-06T11:43:15;416.74;;;396.66;;
2824;SDS011;1420;51.324;12.344;2023-08-06T11:45:43;423.20;;;403.04;;
2824;SDS011;1420;51.324;12.344;2023-08-06T11:48:11;417.34;;;397.52;;
2824;SDS011;1420;51.324;12.344;2023-08-06T11:50:38;415.52;;;395.28;;
2824;SDS011;1420;51.324;12.344;2023-08-06T11:53:05;403.98;;;384.78;;
2824;SDS011;1420;51.324;12.344;2023-08-06T11:55:33;387.86;;;369.36;;
2824;SDS011;1420;51.324;12.344;2023-08-06T11:58:03;506.08;;;479.54;;
2824;SDS011;1420;51.324;12.344;2023-08-06T12:00:30;487.92;;;462.88;;
2824;SDS011;1420;51.324;12.344;2023-08-06T12:02:58;434.98;;;413.82;;
2824;SDS011;1420;51.324;12.344;2023-08-06T12:05:29;423.26;;;402.82;;
2824;SDS011;1420;51.324;12.344;2023-08-06T12:07:56;441.86;;;420.14;;
2824;SDS011;1420;51.324;12.344;2023-08-06T12:10:24;440.34;;;418.76;;
2824;SDS011;1420;51.324;12.344;2023-08-06T12:12:51;458.78;;;436.10;;
2824;SDS011;1420;51.324;12.344;2023-08-06T12:15:18;557.62;;;528.76;;
2824;SDS011;1420;51.324;12.344;2023-08-06T12:17:46;488.92;;;465.24;;
2824;SDS011;1420;51.324;12.344;2023-08-06T12:20:14;500.92;;;475.30;;
2824;SDS011;1420;51.324;12.344;2023-08-06T12:22:41;557.34;;;527.80;;
2824;SDS011;1420;51.324;12.344;2023-08-06T12:25:10;517.68;;;490.42;;
2824;SDS011;1420;51.324;12.344;2023-08-06T12:27:37;653.58;;;616.32;;
2824;SDS011;1420;51.324;12.344;2023-08-06T12:30:05;715.82;;;674.06;;
2824;SDS011;1420;51.324;12.344;2023-08-06T12:32:33;677.14;;;638.36;;
2824;SDS011;1420;51.324;12.344;2023-08-06T12:35:01;583.60;;;552.10;;
2824;SDS011;1420;51.324;12.344;2023-08-06T12:37:28;734.06;;;691.74;;
2824;SDS011;1420;51.324;12.344;2023-08-06T12:39:55;728.30;;;685.48;;
2824;SDS011;1420;51.324;12.344;2023-08-06T12:42:23;650.38;;;614.08;;
2824;SDS011;1420;51.324;12.344;2023-08-06T12:44:51;643.24;;;606.20;;
2824;SDS011;1420;51.324;12.344;2023-08-06T12:47:18;746.62;;;702.44;;
2824;SDS011;1420;51.324;12.344;2023-08-06T12:49:46;623.12;;;588.70;;
2824;SDS011;1420;51.324;12.344;2023-08-06T12:52:13;714.24;;;673.26;;
2824;SDS011;1420;51.324;12.344;2023-08-06T12:54:41;714.94;;;674.44;;
2824;SDS011;1420;51.324;12.344;2023-08-06T12:57:09;651.90;;;615.94;;
2824;SDS011;1420;51.324;12.344;2023-08-06T12:59:36;550.76;;;521.32;;
2824;SDS011;1420;51.324;12.344;2023-08-06T13:02:03;614.38;;;580.30;;
2824;SDS011;1420;51.324;12.344;2023-08-06T13:04:30;620.92;;;586.74;;
2824;SDS011;1420;51.324;12.344;2023-08-06T13:06:58;506.52;;;478.98;;
2824;SDS011;1420;51.324;12.344;2023-08-06T13:09:25;417.34;;;397.42;;
2824;SDS011;1420;51.324;12.344;2023-08-06T13:11:52;373.96;;;355.96;;
2824;SDS011;1420;51.324;12.344;2023-08-06T13:14:19;394.52;;;376.36;;
2824;SDS011;1420;51.324;12.344;2023-08-06T13:16:47;373.02;;;355.72;;
2824;SDS011;1420;51.324;12.344;2023-08-06T13:19:14;395.96;;;376.88;;
2824;SDS011;1420;51.324;12.344;2023-08-06T13:24:25;446.48;;;424.06;;
2824;SDS011;1420;51.324;12.344;2023-08-06T13:26:53;408.10;;;387.10;;
2824;SDS011;1420;51.324;12.344;2023-08-06T13:29:21;787.14;;;741.50;;
2824;SDS011;1420;51.324;12.344;2023-08-06T13:31:48;766.98;;;721.76;;
2824;SDS011;1420;51.324;12.344;2023-08-06T13:34:15;718.58;;;678.48;;
2824;SDS011;1420;51.324;12.344;2023-08-06T13:36:43;793.42;;;747.46;;
2824;SDS011;1420;51.324;12.344;2023-08-06T13:39:11;820.46;;;773.60;;
2824;SDS011;1420;51.324;12.344;2023-08-06T13:41:38;754.16;;;710.36;;
2824;SDS011;1420;51.324;12.344;2023-08-06T13:44:05;787.14;;;740.96;;
2824;SDS011;1420;51.324;12.344;2023-08-06T13:46:33;815.12;;;767.22;;
2824;SDS011;1420;51.324;12.344;2023-08-06T13:49:02;831.30;;;778.74;;
2824;SDS011;1420;51.324;12.344;2023-08-06T13:51:30;813.86;;;765.28;;
2824;SDS011;1420;51.324;12.344;2023-08-06T13:53:57;788.12;;;742.44;;
2824;SDS011;1420;51.324;12.344;2023-08-06T13:56:24;693.60;;;654.02;;
2824;SDS011;1420;51.324;12.344;2023-08-06T13:58:51;771.16;;;725.82;;
2824;SDS011;1420;51.324;12.344;2023-08-06T14:01:18;839.74;;;784.94;;
2824;SDS011;1420;51.324;12.344;2023-08-06T14:03:46;836.12;;;786.22;;
2824;SDS011;1420;51.324;12.344;2023-08-06T14:06:14;739.72;;;697.42;;
2824;SDS011;1420;51.324;12.344;2023-08-06T14:08:42;690.50;;;649.40;;
2824;SDS011;1420;51.324;12.344;2023-08-06T14:11:09;722.56;;;682.18;;
2824;SDS011;1420;51.324;12.344;2023-08-06T14:13:36;730.18;;;689.16;;
2824;SDS011;1420;51.324;12.344;2023-08-06T14:16:03;740.30;;;698.76;;
2824;SDS011;1420;51.324;12.344;2023-08-06T14:18:31;695.74;;;657.36;;
2824;SDS011;1420;51.324;12.344;2023-08-06T14:20:58;741.76;;;700.28;;
2824;SDS011;1420;51.324;12.344;2023-08-06T14:23:26;746.38;;;704.48;;
2824;SDS011;1420;51.324;12.344;2023-08-06T14:25:53;752.62;;;711.32;;
2824;SDS011;1420;51.324;12.344;2023-08-06T14:28:21;771.48;;;728.14;;
2824;SDS011;1420;51.324;12.344;2023-08-06T14:30:49;732.34;;;690.68;;
2824;SDS011;1420;51.324;12.344;2023-08-06T14:33:16;745.34;;;703.76;;
2824;SDS011;1420;51.324;12.344;2023-08-06T14:35:43;743.54;;;702.14;;
2824;SDS011;1420;51.324;12.344;2023-08-06T14:38:10;802.86;;;758.02;;
2824;SDS011;1420;51.324;12.344;2023-08-06T14:40:39;746.68;;;704.04;;
2824;SDS011;1420;51.324;12.344;2023-08-06T14:43:06;761.12;;;717.12;;
2824;SDS011;1420;51.324;12.344;2023-08-06T14:45:33;805.40;;;758.28;;
2824;SDS011;1420;51.324;12.344;2023-08-06T14:48:00;806.34;;;759.84;;
2824;SDS011;1420;51.324;12.344;2023-08-06T14:50:27;808.78;;;761.72;;